Carl, Iowa
Current Conditions -  °F | °C
As of 1:35 AM on Monday 22 Dec 2014 (Local Time) from KCSQ Reporting Station
Haze Haze  
Wind Chill: 31°   Ceiling: 400
Heat Index: 39°   Visibility: 3mi
Dew Point: 39°   Wind: 15mph
Humidity: 100%   Direction: 160°SSE
Pressure: 29.68"   Gusts: 22mph
Location:  41.0285°N, 94.7568°W
Report Text: KCSQ 220735Z AUTO 16013G19KT 3SM BR OVC004 04/04 A2968 RMK AO2
Loading
Personal Weather Stations






























Interactive Weather Map New forecast layout! Learn more

10-Day Weather Forecast

Advertisements
Track Severe Weather on mobile